Terminal Aerodrome Forecast
Issued by NWS

Home | Current Version | Previous Version | Text Only | Print | Product List | Glossary On
Versions: 1 2 3 4 5 6 7 8 9 10 11 12 13
000
FTUS43 KPAH 251120
TAFOWB
TAF
KOWB 251120Z 2512/2612 30015G25KT P6SM SCT025 BKN035
      TEMPO 2517/2521 BKN025
     FM252300 VRB03KT P6SM SKC=

USA.gov is the U.S. government's official web portal to all federal, state and local government web resources and services.